createdAt,value
2023-04-06T00:02:20.574Z,5.13
2023-04-06T00:06:23.897Z,4.75
2023-04-06T00:10:27.605Z,7.43
2023-04-06T00:14:32.215Z,5.53
2023-04-06T00:18:35.390Z,4.33
2023-04-06T00:22:38.703Z,5.43
2023-04-06T00:26:41.949Z,5.30
2023-04-06T00:30:46.684Z,6.87
2023-04-06T00:34:49.945Z,4.10
2023-04-06T00:38:53.306Z,6.83
2023-04-06T00:42:56.780Z,5.32
2023-04-06T00:47:01.773Z,6.27
2023-04-06T00:51:05.751Z,5.53
2023-04-06T00:55:09.861Z,5.50
2023-04-06T00:59:17.859Z,6.17
2023-04-06T01:03:22.728Z,4.93
2023-04-06T01:07:26.165Z,6.43
2023-04-06T01:11:41.667Z,7.87
2023-04-06T01:15:49.364Z,6.70
2023-04-06T01:19:59.998Z,4.73
2023-04-06T01:24:10.442Z,8.80
2023-04-06T01:28:33.869Z,6.83
2023-04-06T01:32:45.928Z,4.83
2023-04-06T01:36:51.920Z,6.43
2023-04-06T01:41:03.003Z,7.17
2023-04-06T01:45:13.010Z,6.20
2023-04-06T01:49:17.673Z,4.97
2023-04-06T01:53:25.454Z,7.57
2023-04-06T01:57:34.525Z,5.03
2023-04-06T02:01:47.173Z,6.23
2023-04-06T02:05:50.561Z,5.03
2023-04-06T02:10:13.948Z,6.47
2023-04-06T02:14:18.981Z,4.77
2023-04-06T02:18:28.658Z,4.27
2023-04-06T02:22:32.170Z,5.33
2023-04-06T02:26:36.406Z,8.70
2023-04-06T02:30:41.487Z,5.80
2023-04-06T02:34:44.745Z,5.03
2023-04-06T02:38:48.047Z,5.83
2023-04-06T02:42:51.641Z,6.30
2023-04-06T02:47:04.265Z,5.77
2023-04-06T02:51:08.174Z,5.53
2023-04-06T02:55:12.711Z,7.93
2023-04-06T02:59:16.145Z,5.93
2023-04-06T03:03:28.011Z,4.37
2023-04-06T03:07:32.598Z,5.40
2023-04-06T03:11:35.870Z,6.20
2023-04-06T03:15:39.132Z,5.60
2023-04-06T03:19:51.684Z,6.17
2023-04-06T03:23:55.592Z,4.63
2023-04-06T03:27:58.902Z,8.30
2023-04-06T03:32:03.078Z,7.40
2023-04-06T03:36:17.228Z,6.77
2023-04-06T03:40:21.277Z,6.40
2023-04-06T03:44:24.502Z,6.80
2023-04-06T03:48:27.726Z,6.83
2023-04-06T03:52:32.633Z,6.77
2023-04-06T03:56:36.123Z,6.73
2023-04-06T04:00:39.743Z,7.97
2023-04-06T04:04:43.894Z,4.30
2023-04-06T04:08:48.520Z,8.20
2023-04-06T04:12:52.187Z,4.27
2023-04-06T04:16:55.574Z,4.60
2023-04-06T04:20:58.758Z,7.27
2023-04-06T04:25:03.500Z,4.67
2023-04-06T04:29:09.777Z,7.03
2023-04-06T04:33:14.515Z,5.93
2023-04-06T04:37:18.964Z,5.90
2023-04-06T04:41:29.968Z,5.80
2023-04-06T04:45:34.168Z,6.57
2023-04-06T04:49:47.448Z,6.00
2023-04-06T04:53:57.550Z,5.77
2023-04-06T04:58:06.743Z,7.00
2023-04-06T05:02:27.294Z,5.70
2023-04-06T05:06:49.562Z,5.50
2023-04-06T05:10:54.505Z,6.83
2023-04-06T05:15:00.502Z,6.73
2023-04-06T05:19:04.090Z,8.43
2023-04-06T05:23:15.576Z,5.33
2023-04-06T05:27:19.885Z,5.30
2023-04-06T05:31:26.117Z,7.13
2023-04-06T05:35:29.853Z,6.57
2023-04-06T05:39:38.021Z,6.03
2023-04-06T05:43:41.315Z,5.50
2023-04-06T05:47:46.453Z,6.17
2023-04-06T05:51:58.958Z,6.73
2023-04-06T05:56:03.306Z,6.00
2023-04-06T06:00:10.038Z,6.70
2023-04-06T06:04:21.628Z,7.10
2023-04-06T06:08:28.712Z,5.90
2023-04-06T06:12:33.366Z,5.90
2023-04-06T06:16:37.651Z,6.83
2023-04-06T06:20:44.672Z,6.53
2023-04-06T06:24:47.943Z,7.50
2023-04-06T06:28:54.239Z,8.67
2023-04-06T06:32:57.978Z,7.60
2023-04-06T06:37:03.861Z,9.47
2023-04-06T06:41:07.493Z,7.53
2023-04-06T06:45:13.181Z,6.30
2023-04-06T06:49:17.239Z,7.70
2023-04-06T06:53:21.987Z,8.53
2023-04-06T06:57:25.793Z,7.80
2023-04-06T07:01:30.280Z,8.27
2023-04-06T07:05:34.848Z,7.10
2023-04-06T07:09:39.503Z,7.30
2023-04-06T07:13:44.356Z,6.82
2023-04-06T07:17:47.796Z,7.45
2023-04-06T07:21:51.587Z,6.30
2023-04-06T07:25:56.382Z,7.13
2023-04-06T07:29:59.651Z,6.55
2023-04-06T07:34:03.668Z,7.38
2023-04-06T07:38:07.077Z,5.75
2023-04-06T07:42:12.992Z,6.97
2023-04-06T07:46:16.728Z,6.20
2023-04-06T07:50:20.314Z,5.88
2023-04-06T07:54:24.602Z,9.75
2023-04-06T07:58:29.539Z,8.02
2023-04-06T08:02:33.693Z,5.25
2023-04-06T08:06:37.508Z,5.63
2023-04-06T08:10:40.900Z,7.45
2023-04-06T08:14:45.577Z,7.22
2023-04-06T08:18:48.828Z,7.07
2023-04-06T08:22:53.660Z,5.07
2023-04-06T08:26:57.058Z,7.00
2023-04-06T08:31:01.628Z,5.13
2023-04-06T08:35:05.054Z,6.18
2023-04-06T08:39:08.265Z,5.93
2023-04-06T08:43:14.995Z,5.80
2023-04-06T08:47:20.553Z,7.82
2023-04-06T08:51:26.384Z,8.77
2023-04-06T08:55:29.829Z,6.65
2023-04-06T08:59:34.147Z,7.50
2023-04-06T09:03:40.874Z,5.80
2023-04-06T09:07:44.471Z,5.93
2023-04-06T09:11:49.043Z,5.97
2023-04-06T09:16:01.379Z,6.25
2023-04-06T09:20:06.777Z,4.40
2023-04-06T09:24:11.421Z,2.72
2023-04-06T09:28:15.388Z,4.55
2023-04-06T09:32:18.784Z,3.45
2023-04-06T09:36:32.413Z,4.68
2023-04-06T09:40:35.680Z,3.92
2023-04-06T09:44:38.886Z,4.38
2023-04-06T09:48:42.266Z,3.47
2023-04-06T09:52:50.941Z,3.28
2023-04-06T09:56:59.710Z,3.88
2023-04-06T10:01:09.229Z,4.72
2023-04-06T10:05:34.589Z,4.00
2023-04-06T10:09:39.782Z,2.47
2023-04-06T10:13:43.386Z,4.97
2023-04-06T10:17:47.038Z,3.45
2023-04-06T10:21:56.954Z,3.10
2023-04-06T10:26:03.127Z,3.65
2023-04-06T10:30:07.933Z,2.67
2023-04-06T10:34:11.216Z,2.63
2023-04-06T10:38:15.498Z,2.97
2023-04-06T10:42:20.289Z,3.25
2023-04-06T10:46:27.542Z,3.38
2023-04-06T10:50:32.043Z,2.90
2023-04-06T10:54:35.587Z,2.80
2023-04-06T10:58:40.963Z,3.25
2023-04-06T11:02:44.362Z,4.82
2023-04-06T11:06:50.162Z,2.88
2023-04-06T11:10:53.338Z,4.15
2023-04-06T11:15:03.113Z,3.20
2023-04-06T11:19:08.026Z,1.92
2023-04-06T11:23:11.218Z,3.05
2023-04-06T11:27:16.121Z,2.33
2023-04-06T11:31:20.784Z,2.95
2023-04-06T11:35:26.055Z,3.88
2023-04-06T11:39:31.295Z,2.92
2023-04-06T11:43:34.523Z,3.78
2023-04-06T11:47:39.890Z,2.53
2023-04-06T11:51:43.115Z,3.13
2023-04-06T11:55:48.337Z,2.90
2023-04-06T11:59:51.813Z,2.58
2023-04-06T12:03:56.703Z,2.60
2023-04-06T12:08:01.211Z,2.92
2023-04-06T12:12:06.660Z,5.07
2023-04-06T12:16:09.955Z,3.30
2023-04-06T12:20:25.937Z,2.33
2023-04-06T12:24:31.031Z,3.78
2023-04-06T12:28:34.241Z,5.00
2023-04-06T12:32:37.471Z,3.17
2023-04-06T12:36:42.193Z,3.80
2023-04-06T12:40:45.613Z,3.80
2023-04-06T12:44:48.851Z,3.35
2023-04-06T12:48:54.686Z,3.10
2023-04-06T12:52:59.409Z,4.10
2023-04-06T12:57:03.119Z,2.95
2023-04-06T13:01:09.228Z,2.60
2023-04-06T13:05:12.854Z,2.42
2023-04-06T13:09:17.534Z,4.07
2023-04-06T13:13:25.384Z,2.90
2023-04-06T13:17:29.832Z,2.85
2023-04-06T13:21:33.134Z,2.42
2023-04-06T13:25:37.767Z,3.72
2023-04-06T13:29:41.141Z,3.45
2023-04-06T13:33:44.373Z,4.40
2023-04-06T13:37:47.608Z,3.00
2023-04-06T13:41:52.312Z,3.78
2023-04-06T13:45:59.195Z,5.53
2023-04-06T13:50:02.546Z,2.97
2023-04-06T13:54:07.269Z,4.78
2023-04-06T13:58:11.868Z,3.33
2023-04-06T14:02:14.998Z,4.72
2023-04-06T14:06:30.545Z,3.72
2023-04-06T14:10:41.914Z,3.60
2023-04-06T14:14:46.402Z,4.13
2023-04-06T14:18:49.474Z,4.05
2023-04-06T14:22:53.653Z,3.80
2023-04-06T14:26:57.045Z,4.20
2023-04-06T14:31:03.911Z,3.47
2023-04-06T14:35:09.461Z,5.82
2023-04-06T14:39:12.772Z,4.70
2023-04-06T14:43:16.175Z,4.93
2023-04-06T14:47:22.584Z,5.38
2023-04-06T14:51:26.671Z,3.38
2023-04-06T14:55:29.724Z,3.08
2023-04-06T14:59:35.893Z,6.10
2023-04-06T15:03:42.461Z,2.83
2023-04-06T15:07:45.962Z,3.88
2023-04-06T15:11:49.227Z,2.92
2023-04-06T15:15:53.491Z,2.83
2023-04-06T15:19:57.965Z,4.00
2023-04-06T15:24:01.060Z,4.00
2023-04-06T15:28:04.216Z,3.08
2023-04-06T15:32:07.296Z,4.03
2023-04-06T15:36:25.115Z,4.18
2023-04-06T15:40:28.254Z,3.45
2023-04-06T15:44:31.573Z,4.70
2023-04-06T15:48:34.979Z,3.03
2023-04-06T15:52:40.052Z,5.32
2023-04-06T15:56:43.331Z,4.13
2023-04-06T16:00:46.551Z,3.20
2023-04-06T16:04:49.728Z,3.45
2023-04-06T16:08:54.676Z,3.42
2023-04-06T16:12:57.692Z,3.58
2023-04-06T16:17:00.952Z,4.60
2023-04-06T16:21:04.180Z,3.40
2023-04-06T16:25:11.880Z,3.63
2023-04-06T16:29:16.991Z,3.15
2023-04-06T16:33:20.159Z,3.10
2023-04-06T16:37:23.187Z,5.50
2023-04-06T16:41:31.049Z,2.83
2023-04-06T16:45:34.304Z,4.05
2023-04-06T16:49:37.403Z,4.72
2023-04-06T16:53:40.804Z,4.60
2023-04-06T16:57:45.519Z,4.40
2023-04-06T17:01:48.615Z,4.40
2023-04-06T17:05:51.810Z,3.67
2023-04-06T17:09:54.835Z,3.30
2023-04-06T17:13:59.249Z,4.28
2023-04-06T17:18:02.436Z,4.88
2023-04-06T17:22:05.656Z,3.50
2023-04-06T17:26:09.551Z,3.20
2023-04-06T17:30:17.045Z,3.58
2023-04-06T17:34:21.321Z,4.05
2023-04-06T17:38:24.409Z,3.90
2023-04-06T17:42:27.618Z,4.35
2023-04-06T17:46:32.657Z,5.15
2023-04-06T17:50:39.006Z,3.20
2023-04-06T17:54:42.125Z,4.25
2023-04-06T17:58:45.527Z,2.80
2023-04-06T18:02:49.967Z,5.85
2023-04-06T18:06:53.244Z,3.90
2023-04-06T18:10:56.443Z,4.07
2023-04-06T18:14:59.523Z,4.05
2023-04-06T18:19:04.919Z,3.53
2023-04-06T18:23:08.013Z,6.10
2023-04-06T18:27:11.160Z,3.53
2023-04-06T18:31:14.617Z,3.90
2023-04-06T18:35:19.117Z,6.00
2023-04-06T18:39:22.160Z,3.90
2023-04-06T18:43:25.418Z,3.92
2023-04-06T18:47:28.636Z,4.95
2023-04-06T18:51:33.472Z,4.97
2023-04-06T18:55:36.570Z,7.53
2023-04-06T18:59:39.617Z,4.43
2023-04-06T19:03:42.863Z,5.47
2023-04-06T19:07:52.395Z,4.75
2023-04-06T19:11:55.842Z,4.28
2023-04-06T19:15:58.881Z,3.70
2023-04-06T19:20:02.869Z,4.53
2023-04-06T19:24:07.854Z,5.05
2023-04-06T19:28:10.956Z,3.90
2023-04-06T19:32:16.185Z,4.53
2023-04-06T19:36:19.621Z,6.35
2023-04-06T19:40:24.169Z,4.97
2023-04-06T19:44:27.376Z,3.28
2023-04-06T19:48:30.745Z,3.45
2023-04-06T19:52:33.840Z,4.03
2023-04-06T19:56:39.625Z,4.05
2023-04-06T20:00:42.800Z,4.32
2023-04-06T20:04:46.161Z,6.00
2023-04-06T20:08:49.521Z,3.38
2023-04-06T20:12:53.947Z,4.70
2023-04-06T20:16:57.192Z,5.43
2023-04-06T20:21:00.391Z,5.05
2023-04-06T20:25:03.456Z,4.90
2023-04-06T20:29:08.115Z,3.75
2023-04-06T20:33:11.253Z,4.85
2023-04-06T20:37:14.515Z,4.25
2023-04-06T20:41:17.703Z,4.20
2023-04-06T20:45:22.151Z,4.93
2023-04-06T20:49:25.379Z,4.15
2023-04-06T20:53:28.451Z,5.10
2023-04-06T20:57:32.156Z,4.13
2023-04-06T21:01:37.086Z,3.50
2023-04-06T21:05:40.098Z,4.35
2023-04-06T21:09:43.431Z,6.35
2023-04-06T21:13:46.740Z,4.20
2023-04-06T21:17:51.233Z,4.07
2023-04-06T21:21:54.365Z,4.40
2023-04-06T21:25:57.975Z,5.90
2023-04-06T21:30:00.979Z,5.30
2023-04-06T21:34:09.913Z,6.72
2023-04-06T21:38:13.334Z,5.28
2023-04-06T21:42:16.372Z,5.25
2023-04-06T21:46:19.377Z,8.32
2023-04-06T21:50:24.047Z,6.72
2023-04-06T21:54:27.121Z,8.43
2023-04-06T21:58:30.175Z,9.23
2023-04-06T22:02:34.119Z,6.93
2023-04-06T22:06:39.319Z,8.32
2023-04-06T22:10:42.554Z,8.70
2023-04-06T22:14:45.613Z,9.32
2023-04-06T22:18:48.597Z,7.43
2023-04-06T22:22:53.085Z,9.50
2023-04-06T22:26:56.665Z,8.55
2023-04-06T22:30:59.738Z,9.52
2023-04-06T22:35:02.943Z,8.45
2023-04-06T22:39:07.407Z,9.30
2023-04-06T22:43:10.535Z,11.10
2023-04-06T22:47:14.457Z,8.75
2023-04-06T22:51:17.669Z,12.43
2023-04-06T22:55:22.377Z,10.73
2023-04-06T22:59:25.557Z,9.13
2023-04-06T23:03:28.726Z,6.93
2023-04-06T23:07:32.815Z,9.35
2023-04-06T23:11:37.611Z,7.72
2023-04-06T23:15:40.681Z,12.57
2023-04-06T23:19:43.682Z,6.30
2023-04-06T23:23:46.711Z,9.00
2023-04-06T23:27:52.333Z,8.77
2023-04-06T23:31:55.474Z,9.30
2023-04-06T23:35:58.544Z,9.90
2023-04-06T23:40:01.974Z,9.70
2023-04-06T23:44:06.665Z,9.48
2023-04-06T23:48:09.904Z,7.82
2023-04-06T23:52:13.052Z,8.82
2023-04-06T23:56:16.209Z,7.15
